createdAt,value
2022-12-04T00:01:36.742Z,7.88
2022-12-04T00:06:40.058Z,8.60
2022-12-04T00:11:43.462Z,7.75
2022-12-04T00:16:47.720Z,8.77
2022-12-04T00:21:51.829Z,8.07
2022-12-04T00:26:55.375Z,8.13
2022-12-04T00:31:58.955Z,11.75
2022-12-04T00:37:02.780Z,8.20
2022-12-04T00:42:06.116Z,5.85
2022-12-04T00:47:09.703Z,8.57
2022-12-04T00:52:14.302Z,12.13
2022-12-04T00:57:17.843Z,9.98
2022-12-04T01:02:21.304Z,7.43
2022-12-04T01:07:24.667Z,10.55
2022-12-04T01:12:28.005Z,6.95
2022-12-04T01:17:31.860Z,8.43
2022-12-04T01:22:35.508Z,7.13
2022-12-04T01:27:39.463Z,7.93
2022-12-04T01:32:44.082Z,11.07
2022-12-04T01:37:47.433Z,7.60
2022-12-04T01:42:51.034Z,9.40
2022-12-04T01:47:58.897Z,12.23
2022-12-04T01:53:02.403Z,11.35
2022-12-04T01:58:07.677Z,6.85
2022-12-04T02:03:13.301Z,8.05
2022-12-04T02:08:17.060Z,6.43
2022-12-04T02:13:23.330Z,6.63
2022-12-04T02:18:39.110Z,7.47
2022-12-04T02:24:11.338Z,8.82
2022-12-04T02:29:30.179Z,8.40
2022-12-04T02:34:56.661Z,6.82
2022-12-04T02:40:12.085Z,5.97
2022-12-04T02:45:21.199Z,5.43
2022-12-04T02:50:24.938Z,9.65
2022-12-04T02:55:38.195Z,8.75
2022-12-04T03:00:44.108Z,6.28
2022-12-04T03:06:11.312Z,6.35
2022-12-04T03:11:16.170Z,5.60
2022-12-04T03:16:31.822Z,5.80
2022-12-04T03:21:41.711Z,6.65
2022-12-04T03:26:56.432Z,5.22
2022-12-04T03:32:03.780Z,7.68
2022-12-04T03:37:15.450Z,6.72
2022-12-04T03:42:47.844Z,5.75
2022-12-04T03:48:08.012Z,10.38
2022-12-04T03:53:46.897Z,4.80
2022-12-04T03:58:57.292Z,6.25
2022-12-04T04:04:04.873Z,7.38
2022-12-04T04:09:15.139Z,7.50
2022-12-04T04:14:33.663Z,6.78
2022-12-04T04:19:39.686Z,9.73
2022-12-04T04:24:47.286Z,8.80
2022-12-04T04:29:52.704Z,8.98
2022-12-04T04:34:59.421Z,9.23
2022-12-04T04:40:12.346Z,7.28
2022-12-04T04:45:42.366Z,6.20
2022-12-04T04:50:47.136Z,9.05
2022-12-04T04:55:50.809Z,7.15
2022-12-04T05:01:03.949Z,6.22
2022-12-04T05:06:07.643Z,5.55
2022-12-04T05:11:16.015Z,10.35
2022-12-04T05:16:20.729Z,5.00
2022-12-04T05:21:24.504Z,10.32
2022-12-04T05:26:28.781Z,9.02
2022-12-04T05:31:32.389Z,7.75
2022-12-04T05:36:35.762Z,4.97
2022-12-04T05:41:39.370Z,6.20
2022-12-04T05:46:42.964Z,7.50
2022-12-04T05:51:46.711Z,5.75
2022-12-04T05:56:51.891Z,8.93
2022-12-04T06:01:55.608Z,5.68
2022-12-04T06:06:59.155Z,20.13
2022-12-04T06:12:03.413Z,7.03
2022-12-04T06:17:07.196Z,6.93
2022-12-04T06:22:10.836Z,6.65
2022-12-04T06:27:29.459Z,6.63
2022-12-04T06:32:32.691Z,11.25
2022-12-04T06:37:36.114Z,5.63
2022-12-04T06:42:39.721Z,7.65
2022-12-04T06:47:43.216Z,7.10
2022-12-04T06:52:46.749Z,6.25
2022-12-04T06:57:50.081Z,9.48
2022-12-04T07:02:53.725Z,6.07
2022-12-04T07:07:57.349Z,8.90
2022-12-04T07:13:00.807Z,8.77
2022-12-04T07:18:04.863Z,7.97
2022-12-04T07:23:08.484Z,10.05
2022-12-04T07:28:12.022Z,9.85
2022-12-04T07:33:16.640Z,9.15
2022-12-04T07:38:20.702Z,8.27
2022-12-04T07:43:24.903Z,11.65
2022-12-04T07:48:33.269Z,10.10
2022-12-04T07:53:37.649Z,8.15
2022-12-04T07:58:42.368Z,8.40
2022-12-04T08:03:48.469Z,9.80
2022-12-04T08:08:53.653Z,8.15
2022-12-04T08:14:07.002Z,12.43
2022-12-04T08:19:10.477Z,10.98
2022-12-04T08:24:13.985Z,9.18
2022-12-04T08:29:17.450Z,10.77
2022-12-04T08:34:21.092Z,9.80
2022-12-04T08:39:24.694Z,8.90
2022-12-04T08:44:28.159Z,15.85
2022-12-04T08:49:31.558Z,8.85
2022-12-04T08:54:36.353Z,13.93
2022-12-04T08:59:39.777Z,10.25
2022-12-04T09:04:43.470Z,9.30
2022-12-04T09:09:48.508Z,13.88
2022-12-04T09:14:51.993Z,11.15
2022-12-04T09:20:00.555Z,14.27
2022-12-04T09:25:06.731Z,17.25
2022-12-04T09:30:12.672Z,13.98
2022-12-04T09:35:16.201Z,8.85
2022-12-04T09:40:38.093Z,11.30
2022-12-04T09:45:54.224Z,10.88
2022-12-04T09:50:58.379Z,10.35
2022-12-04T09:56:07.048Z,12.35
2022-12-04T10:01:22.270Z,12.95
2022-12-04T10:06:55.155Z,8.45
2022-12-04T10:12:10.605Z,13.13
2022-12-04T10:17:14.150Z,9.15
2022-12-04T10:22:20.218Z,7.70
2022-12-04T10:27:32.758Z,14.75
2022-12-04T10:32:37.130Z,8.90
2022-12-04T10:37:43.619Z,13.60
2022-12-04T10:42:58.120Z,9.10
2022-12-04T10:48:01.690Z,8.70
2022-12-04T10:53:08.256Z,7.75
2022-12-04T10:58:19.310Z,13.95
2022-12-04T11:03:27.634Z,10.70
2022-12-04T11:08:41.481Z,12.10
2022-12-04T11:13:45.448Z,13.15
2022-12-04T11:18:51.022Z,16.77
2022-12-04T11:23:54.860Z,10.68
2022-12-04T11:29:00.479Z,8.65
2022-12-04T11:34:08.476Z,13.85
2022-12-04T11:39:11.907Z,13.85
2022-12-04T11:44:26.132Z,7.50
2022-12-04T11:49:31.860Z,16.80
2022-12-04T11:55:00.242Z,7.68
2022-12-04T12:00:17.356Z,16.33
2022-12-04T12:05:23.301Z,7.00
2022-12-04T12:10:55.758Z,8.80
2022-12-04T12:16:11.475Z,13.13
2022-12-04T12:21:36.568Z,8.30
2022-12-04T12:26:56.255Z,13.98
2022-12-04T12:32:11.975Z,11.18
2022-12-04T12:37:37.437Z,13.73
2022-12-04T12:43:16.641Z,9.50
2022-12-04T12:48:35.018Z,15.70
2022-12-04T12:53:44.823Z,14.63
2022-12-04T12:58:56.522Z,12.82
2022-12-04T13:04:22.576Z,15.40
2022-12-04T13:09:33.665Z,15.40
2022-12-04T13:14:38.031Z,20.15
2022-12-04T13:19:45.868Z,15.07
2022-12-04T13:24:55.048Z,25.40
2022-12-04T13:30:16.958Z,19.73
2022-12-04T13:35:35.129Z,15.23
2022-12-04T13:41:07.332Z,16.13
2022-12-04T13:46:32.284Z,19.65
2022-12-04T13:51:39.202Z,16.15
2022-12-04T13:56:44.946Z,20.13
2022-12-04T14:01:53.236Z,19.05
2022-12-04T14:07:00.532Z,17.50
2022-12-04T14:12:07.619Z,28.65
2022-12-04T14:17:30.549Z,17.17
2022-12-04T14:22:43.857Z,19.98
2022-12-04T14:27:52.590Z,19.33
2022-12-04T14:33:17.652Z,18.02
2022-12-04T14:38:23.159Z,18.45
2022-12-04T14:43:33.667Z,18.33
2022-12-04T14:48:55.231Z,22.02
2022-12-04T14:54:16.122Z,15.35
2022-12-04T14:59:22.449Z,19.48
2022-12-04T15:04:32.285Z,18.55
2022-12-04T15:09:36.495Z,18.13
2022-12-04T15:14:44.303Z,17.85
2022-12-04T15:19:47.660Z,18.38
2022-12-04T15:24:52.439Z,14.98
2022-12-04T15:29:58.008Z,17.80
2022-12-04T15:35:08.094Z,16.85
2022-12-04T15:40:21.843Z,22.35
2022-12-04T15:45:30.442Z,23.67
2022-12-04T15:50:33.952Z,19.42
2022-12-04T15:55:46.528Z,19.92
2022-12-04T16:00:56.869Z,21.90
2022-12-04T16:06:09.302Z,18.25
2022-12-04T16:11:18.459Z,20.43
2022-12-04T16:16:22.857Z,18.95
2022-12-04T16:21:30.975Z,17.63
2022-12-04T16:26:37.031Z,19.90
2022-12-04T16:31:40.851Z,18.02
2022-12-04T16:36:44.840Z,18.88
2022-12-04T16:41:48.626Z,16.80
2022-12-04T16:46:52.333Z,15.88
2022-12-04T16:51:55.811Z,20.30
2022-12-04T16:57:00.567Z,19.25
2022-12-04T17:02:06.874Z,15.60
2022-12-04T17:07:10.406Z,17.73
2022-12-04T17:12:14.235Z,18.77
2022-12-04T17:17:18.744Z,15.60
2022-12-04T17:22:24.321Z,15.48
2022-12-04T17:27:28.688Z,14.15
2022-12-04T17:32:33.690Z,15.30
2022-12-04T17:37:39.037Z,16.60
2022-12-04T17:42:43.319Z,20.40
2022-12-04T17:47:46.832Z,15.65
2022-12-04T17:52:50.726Z,11.95
2022-12-04T17:57:55.139Z,13.52
2022-12-04T18:02:59.571Z,14.32
2022-12-04T18:08:03.466Z,16.73
2022-12-04T18:13:07.084Z,14.40
2022-12-04T18:18:10.504Z,12.95
2022-12-04T18:23:14.107Z,12.40
2022-12-04T18:28:18.754Z,15.60
2022-12-04T18:33:22.391Z,12.23
2022-12-04T18:38:30.531Z,12.93
2022-12-04T18:43:35.226Z,16.90
2022-12-04T18:48:39.757Z,11.88
2022-12-04T18:53:43.413Z,12.13
2022-12-04T18:58:46.804Z,14.52
2022-12-04T19:03:50.180Z,12.45
2022-12-04T19:08:54.061Z,11.52
2022-12-04T19:13:58.931Z,8.40
2022-12-04T19:19:02.826Z,10.18
2022-12-04T19:24:07.006Z,7.53
2022-12-04T19:29:11.338Z,15.80
2022-12-04T19:34:15.602Z,8.80
2022-12-04T19:39:18.916Z,12.90
2022-12-04T19:49:46.752Z,5.85
2022-12-04T19:54:50.329Z,9.77
2022-12-04T19:59:59.181Z,11.88
2022-12-04T20:05:02.999Z,11.40
2022-12-04T20:10:07.738Z,8.32
2022-12-04T20:15:12.578Z,7.53
2022-12-04T20:20:16.145Z,12.40
2022-12-04T20:25:22.012Z,7.85
2022-12-04T20:30:25.510Z,13.30
2022-12-04T20:35:29.008Z,8.25
2022-12-04T20:40:33.822Z,12.38
2022-12-04T20:45:37.087Z,9.85
2022-12-04T20:50:40.406Z,11.43
2022-12-04T20:55:53.624Z,12.73
2022-12-04T21:00:57.031Z,14.90
2022-12-04T21:11:03.418Z,17.00
2022-12-04T21:16:07.153Z,14.45
2022-12-04T21:21:10.608Z,17.80
2022-12-04T21:26:14.763Z,17.95
2022-12-04T21:31:18.689Z,13.45
2022-12-04T21:36:22.356Z,17.33
2022-12-04T21:41:25.904Z,12.02
2022-12-04T21:46:29.432Z,15.15
2022-12-04T21:51:56.418Z,18.98
2022-12-04T21:56:58.731Z,11.10
2022-12-04T22:02:03.678Z,15.80
2022-12-04T22:07:07.452Z,9.48
2022-12-04T22:12:33.267Z,11.15
2022-12-04T22:17:34.411Z,12.07
2022-12-04T22:22:37.757Z,9.85
2022-12-04T22:27:41.206Z,10.80
2022-12-04T22:32:44.937Z,10.07
2022-12-04T22:37:48.301Z,11.77
2022-12-04T22:42:52.059Z,7.90
2022-12-04T22:47:55.564Z,9.02
2022-12-04T22:52:58.934Z,10.57
2022-12-04T22:58:02.725Z,13.82
2022-12-04T23:03:06.084Z,10.05
2022-12-04T23:08:09.689Z,9.55
2022-12-04T23:13:12.987Z,9.52
2022-12-04T23:18:16.392Z,11.02
2022-12-04T23:23:20.818Z,7.32
2022-12-04T23:28:24.244Z,9.20
2022-12-04T23:33:28.190Z,8.38
2022-12-04T23:38:32.310Z,9.50
2022-12-04T23:43:36.143Z,6.50
2022-12-04T23:48:44.343Z,14.00
2022-12-04T23:53:48.074Z,10.50
2022-12-04T23:58:53.778Z,8.52
